Time;durP1;ratioP1;P1;durP2;ratioP2;P2;SDS_P1;SDS_P2;PMS_P1;PMS_P2;Temp;Humidity;BMP_temperature;BMP_pressure;BME280_temperature;BME280_humidity;BME280_pressure;Samples;Min_cycle;Max_cycle;Signal;HPM_P1;HPM_P2
2021/06/14 00:02:19;;;;;;;2.83;2.07;;;;;;;;;;5142688;27;20222;-71
2021/06/14 00:04:47;;;;;;;2.63;2.00;;;;;;;;;;5142204;27;20213;-70
2021/06/14 00:07:16;;;;;;;3.97;2.13;;;;;;;;;;5142108;27;20205;-71
2021/06/14 00:09:44;;;;;;;3.00;2.00;;;;;;;;;;5142012;27;20206;-70
2021/06/14 00:12:13;;;;;;;4.10;1.70;;;;;;;;;;5135867;27;20264;-70
2021/06/14 00:14:42;;;;;;;4.37;2.43;;;;;;;;;;5139947;27;20208;-70
2021/06/14 00:17:10;;;;;;;2.20;2.00;;;;;;;;;;5142253;27;20212;-70
2021/06/14 00:19:38;;;;;;;3.70;2.10;;;;;;;;;;5142028;27;20231;-70
2021/06/14 00:22:06;;;;;;;3.97;2.17;;;;;;;;;;5141793;27;20225;-70
2021/06/14 00:24:33;;;;;;;2.10;1.90;;;;;;;;;;5141947;27;20846;-70
2021/06/14 00:27:01;;;;;;;4.07;2.73;;;;;;;;;;5141897;27;20258;-70
2021/06/14 00:29:29;;;;;;;2.13;2.00;;;;;;;;;;5141649;27;20208;-71
2021/06/14 00:31:58;;;;;;;2.83;1.83;;;;;;;;;;5141360;27;20236;-70
2021/06/14 00:34:26;;;;;;;1.97;1.87;;;;;;;;;;5141533;27;20204;-70
2021/06/14 00:36:54;;;;;;;2.33;2.13;;;;;;;;;;5141845;27;20221;-70
2021/06/14 00:39:22;;;;;;;1.80;1.70;;;;;;;;;;5127580;27;20200;-70
2021/06/14 00:41:49;;;;;;;1.93;1.70;;;;;;;;;;5141626;27;20281;-70
2021/06/14 00:44:17;;;;;;;2.47;2.03;;;;;;;;;;5142205;27;20204;-71
2021/06/14 00:46:45;;;;;;;1.77;1.67;;;;;;;;;;5142410;27;20204;-70
2021/06/14 00:49:14;;;;;;;2.33;1.83;;;;;;;;;;5142016;27;20243;-70
2021/06/14 00:51:41;;;;;;;3.07;1.80;;;;;;;;;;5141348;27;20224;-70
2021/06/14 00:54:09;;;;;;;2.80;1.70;;;;;;;;;;5141521;27;20231;-70
2021/06/14 00:56:37;;;;;;;1.90;1.80;;;;;;;;;;5139698;27;20212;-70
2021/06/14 00:59:05;;;;;;;4.60;1.70;;;;;;;;;;5141076;27;20264;-70
2021/06/14 01:01:32;;;;;;;3.30;1.73;;;;;;;;;;5141206;27;20252;-70
2021/06/14 01:04:00;;;;;;;2.00;1.80;;;;;;;;;;5141317;27;20258;-70
2021/06/14 01:06:29;;;;;;;2.20;2.00;;;;;;;;;;5141268;27;20266;-70
2021/06/14 01:08:57;;;;;;;3.63;2.50;;;;;;;;;;5141235;27;20205;-70
2021/06/14 01:11:27;;;;;;;3.40;1.37;;;;;;;;;;5140466;27;20279;-70
2021/06/14 01:13:59;;;;;;;1.90;1.80;;;;;;;;;;5131337;27;20206;-70
2021/06/14 01:16:30;;;;;;;1.80;1.70;;;;;;;;;;5140975;27;20657;-70
2021/06/14 01:19:02;;;;;;;3.60;1.70;;;;;;;;;;5140714;27;20209;-70
2021/06/14 01:21:33;;;;;;;3.27;1.50;;;;;;;;;;5140564;27;20225;-69
2021/06/14 01:24:25;;;;;;;2.07;1.53;;;;;;;;;;5140878;27;20213;-69
2021/06/14 01:26:59;;;;;;;2.33;1.60;;;;;;;;;;5115504;27;20206;-69
2021/06/14 01:29:29;;;;;;;1.80;1.70;;;;;;;;;;5140936;27;20215;-69
2021/06/14 01:31:57;;;;;;;4.67;2.20;;;;;;;;;;5141032;27;20599;-70
2021/06/14 01:34:27;;;;;;;1.67;1.57;;;;;;;;;;5140888;27;20205;-69
2021/06/14 01:36:56;;;;;;;1.90;1.60;;;;;;;;;;5140623;27;20566;-69
2021/06/14 01:39:24;;;;;;;2.97;1.53;;;;;;;;;;5126991;27;20233;-70
2021/06/14 01:41:53;;;;;;;3.03;1.50;;;;;;;;;;5140429;27;20230;-70
2021/06/14 01:44:22;;;;;;;2.67;1.17;;;;;;;;;;5140333;27;20212;-70
2021/06/14 01:46:52;;;;;;;1.60;1.50;;;;;;;;;;5140233;27;20212;-70
2021/06/14 01:49:21;;;;;;;4.43;1.80;;;;;;;;;;5140417;27;20212;-69
2021/06/14 01:51:48;;;;;;;2.53;1.50;;;;;;;;;;5140173;27;20223;-70
2021/06/14 01:54:16;;;;;;;2.30;1.50;;;;;;;;;;5139897;27;20212;-68
2021/06/14 01:56:45;;;;;;;1.67;1.57;;;;;;;;;;5140092;27;20216;-69
2021/06/14 01:59:16;;;;;;;1.70;1.60;;;;;;;;;;5140303;27;20208;-69
2021/06/14 02:01:44;;;;;;;1.83;1.70;;;;;;;;;;5140197;27;20245;-68
2021/06/14 02:04:13;;;;;;;1.47;1.33;;;;;;;;;;5139876;27;20207;-68
2021/06/14 02:06:43;;;;;;;2.70;1.77;;;;;;;;;;5140121;27;20215;-69
2021/06/14 02:09:12;;;;;;;3.10;1.50;;;;;;;;;;5139788;27;20229;-69
2021/06/14 02:11:41;;;;;;;4.67;1.73;;;;;;;;;;5138053;27;20220;-68
2021/06/14 02:14:09;;;;;;;4.40;1.70;;;;;;;;;;5132364;27;20254;-68
2021/06/14 02:16:38;;;;;;;2.93;1.60;;;;;;;;;;5140222;27;20221;-68
2021/06/14 02:19:07;;;;;;;2.80;1.77;;;;;;;;;;5140079;27;20300;-69
2021/06/14 02:21:36;;;;;;;1.70;1.50;;;;;;;;;;5139456;27;20246;-68
2021/06/14 02:24:04;;;;;;;2.50;1.40;;;;;;;;;;5139889;27;20203;-69
2021/06/14 02:26:32;;;;;;;2.73;1.90;;;;;;;;;;5140033;27;20208;-69
2021/06/14 02:29:00;;;;;;;3.13;2.10;;;;;;;;;;5139526;27;20207;-70
2021/06/14 02:31:28;;;;;;;2.07;1.80;;;;;;;;;;5139230;27;20651;-69
2021/06/14 02:33:55;;;;;;;2.00;1.63;;;;;;;;;;5139518;27;20571;-68
2021/06/14 02:36:23;;;;;;;2.20;1.83;;;;;;;;;;5139586;27;20200;-69
2021/06/14 02:38:53;;;;;;;2.40;1.80;;;;;;;;;;5139163;27;20213;-68
2021/06/14 02:41:21;;;;;;;1.80;1.47;;;;;;;;;;5139109;27;20253;-68
2021/06/14 02:43:52;;;;;;;3.10;1.80;;;;;;;;;;5139501;27;20204;-69
2021/06/14 02:46:20;;;;;;;2.20;1.57;;;;;;;;;;5139383;27;20249;-69
2021/06/14 02:48:49;;;;;;;2.87;1.40;;;;;;;;;;5139239;27;20293;-68
2021/06/14 02:51:18;;;;;;;1.70;1.60;;;;;;;;;;5139022;27;20279;-69
2021/06/14 02:54:03;;;;;;;3.07;1.60;;;;;;;;;;5139134;27;20255;-69
2021/06/14 02:56:33;;;;;;;2.10;1.53;;;;;;;;;;5138576;27;20206;-68
2021/06/14 02:59:02;;;;;;;1.53;1.43;;;;;;;;;;5139150;27;20675;-69
2021/06/14 03:01:31;;;;;;;1.83;1.73;;;;;;;;;;5139212;27;20277;-69
2021/06/14 03:03:59;;;;;;;1.53;1.37;;;;;;;;;;5139383;27;20198;-69
2021/06/14 03:06:28;;;;;;;1.50;1.40;;;;;;;;;;5139020;27;20256;-70
2021/06/14 03:08:57;;;;;;;1.57;1.47;;;;;;;;;;5138952;27;20239;-69
2021/06/14 03:11:26;;;;;;;2.30;1.77;;;;;;;;;;5138378;27;20320;-69
2021/06/14 03:13:56;;;;;;;2.10;1.47;;;;;;;;;;5138965;28;20259;-68
2021/06/14 03:16:24;;;;;;;1.93;1.57;;;;;;;;;;5139153;28;20600;-70
2021/06/14 03:18:53;;;;;;;2.20;1.63;;;;;;;;;;5139007;27;20210;-69
2021/06/14 03:21:22;;;;;;;1.73;1.63;;;;;;;;;;5142636;27;20230;-69
2021/06/14 03:23:51;;;;;;;2.67;1.60;;;;;;;;;;5143201;27;20203;-68
2021/06/14 03:26:19;;;;;;;1.87;1.60;;;;;;;;;;5142679;27;20210;-69
2021/06/14 03:28:48;;;;;;;1.23;1.10;;;;;;;;;;5143210;27;20212;-69
2021/06/14 03:31:17;;;;;;;1.73;1.40;;;;;;;;;;5142671;27;20238;-70
2021/06/14 03:33:47;;;;;;;1.67;1.57;;;;;;;;;;5142925;27;20693;-70
2021/06/14 03:36:16;;;;;;;2.30;1.97;;;;;;;;;;5143047;27;20217;-70
2021/06/14 03:38:44;;;;;;;4.80;1.70;;;;;;;;;;5142941;27;20207;-70
2021/06/14 03:41:12;;;;;;;2.70;1.53;;;;;;;;;;5142300;27;20211;-68
2021/06/14 03:43:40;;;;;;;4.70;1.60;;;;;;;;;;5142719;27;20197;-69
2021/06/14 03:46:08;;;;;;;2.20;1.57;;;;;;;;;;5142511;27;20249;-69
2021/06/14 03:48:37;;;;;;;4.37;1.80;;;;;;;;;;5142966;27;20641;-70
2021/06/14 03:51:06;;;;;;;2.57;1.70;;;;;;;;;;5142663;27;20284;-69
2021/06/14 03:53:34;;;;;;;2.43;1.73;;;;;;;;;;5142680;27;20229;-70
2021/06/14 03:56:02;;;;;;;1.80;1.70;;;;;;;;;;5142487;27;20211;-69
2021/06/14 03:58:29;;;;;;;2.57;1.40;;;;;;;;;;5142377;27;20205;-69
2021/06/14 04:00:58;;;;;;;1.50;1.40;;;;;;;;;;5142327;27;20213;-70
2021/06/14 04:03:28;;;;;;;5.87;1.60;;;;;;;;;;5142190;27;20216;-70
2021/06/14 04:05:58;;;;;;;1.50;1.37;;;;;;;;;;5142546;27;20258;-71
2021/06/14 04:08:26;;;;;;;1.60;1.30;;;;;;;;;;5142376;27;20201;-70
2021/06/14 04:10:54;;;;;;;2.23;1.60;;;;;;;;;;5142011;27;20201;-70
2021/06/14 04:13:22;;;;;;;3.13;1.83;;;;;;;;;;5128817;27;20225;-70
2021/06/14 04:15:49;;;;;;;3.53;1.73;;;;;;;;;;5142240;27;20200;-71
2021/06/14 04:18:17;;;;;;;1.70;1.30;;;;;;;;;;5142256;27;20213;-70
2021/06/14 04:20:45;;;;;;;3.10;1.87;;;;;;;;;;5141811;27;20262;-70
2021/06/14 04:23:14;;;;;;;1.90;1.50;;;;;;;;;;5142027;27;20604;-70
2021/06/14 04:25:42;;;;;;;6.13;2.23;;;;;;;;;;5141783;27;20205;-70
2021/06/14 04:28:10;;;;;;;2.00;1.80;;;;;;;;;;5141686;27;20206;-70
2021/06/14 04:30:37;;;;;;;4.97;2.00;;;;;;;;;;5141461;27;20377;-70
2021/06/14 04:33:05;;;;;;;2.70;1.90;;;;;;;;;;5141510;27;20217;-70
2021/06/14 04:35:33;;;;;;;2.13;1.60;;;;;;;;;;5141803;27;20565;-70
2021/06/14 04:38:01;;;;;;;2.37;1.83;;;;;;;;;;5141833;27;20203;-70
2021/06/14 04:40:31;;;;;;;2.93;1.73;;;;;;;;;;5141116;27;20215;-70
2021/06/14 04:42:59;;;;;;;3.87;2.23;;;;;;;;;;5141301;27;20224;-70
2021/06/14 04:45:26;;;;;;;3.27;2.20;;;;;;;;;;5141341;27;20239;-70
2021/06/14 04:47:54;;;;;;;2.43;1.90;;;;;;;;;;5141714;27;20572;-69
2021/06/14 04:50:22;;;;;;;2.83;1.53;;;;;;;;;;5141515;27;20203;-70
2021/06/14 04:52:50;;;;;;;1.87;1.73;;;;;;;;;;5141182;27;20226;-69
2021/06/14 04:55:17;;;;;;;4.10;2.37;;;;;;;;;;5141056;27;20229;-70
2021/06/14 04:57:46;;;;;;;3.80;1.90;;;;;;;;;;5141265;27;20238;-70
2021/06/14 05:00:15;;;;;;;2.00;1.80;;;;;;;;;;5141586;27;20254;-70
2021/06/14 05:02:43;;;;;;;2.83;1.97;;;;;;;;;;5141254;27;20252;-69
2021/06/14 05:05:11;;;;;;;4.20;1.87;;;;;;;;;;5127511;27;20197;-70
2021/06/14 05:07:39;;;;;;;3.03;1.80;;;;;;;;;;5141257;27;20289;-70
2021/06/14 05:10:07;;;;;;;1.87;1.67;;;;;;;;;;5140951;27;20204;-70
2021/06/14 05:12:35;;;;;;;4.47;2.03;;;;;;;;;;5140050;27;20280;-70
2021/06/14 05:15:04;;;;;;;3.60;1.43;;;;;;;;;;5141073;27;20329;-70
2021/06/14 05:17:32;;;;;;;4.50;2.07;;;;;;;;;;5140660;27;20204;-70
2021/06/14 05:20:00;;;;;;;1.77;1.60;;;;;;;;;;5141011;27;20205;-70
2021/06/14 05:22:27;;;;;;;2.83;1.90;;;;;;;;;;5140835;27;20228;-70
2021/06/14 05:24:55;;;;;;;2.10;1.90;;;;;;;;;;5140668;27;20230;-71
2021/06/14 05:27:23;;;;;;;3.97;1.87;;;;;;;;;;5140315;27;20203;-70
2021/06/14 05:29:50;;;;;;;1.80;1.63;;;;;;;;;;5140788;27;20648;-71
2021/06/14 05:32:19;;;;;;;4.23;1.87;;;;;;;;;;5140052;27;20261;-69
2021/06/14 05:34:47;;;;;;;5.73;1.90;;;;;;;;;;5140325;27;20227;-71
2021/06/14 05:37:15;;;;;;;2.50;1.80;;;;;;;;;;5140639;27;20578;-70
2021/06/14 05:39:43;;;;;;;6.00;2.13;;;;;;;;;;5138188;27;20231;-71
2021/06/14 05:42:10;;;;;;;3.90;1.80;;;;;;;;;;5135414;27;20216;-72
2021/06/14 05:44:38;;;;;;;3.27;1.83;;;;;;;;;;5128615;27;20652;-71
2021/06/14 05:47:06;;;;;;;2.30;2.10;;;;;;;;;;5126982;27;20254;-71
2021/06/14 05:49:35;;;;;;;1.80;1.70;;;;;;;;;;5126249;27;20267;-72
2021/06/14 05:52:03;;;;;;;2.40;1.80;;;;;;;;;;5126686;27;20627;-71
2021/06/14 05:54:31;;;;;;;2.43;1.90;;;;;;;;;;5124489;27;20225;-72
2021/06/14 05:56:59;;;;;;;3.30;1.83;;;;;;;;;;5128677;27;20206;-70
2021/06/14 05:59:26;;;;;;;1.93;1.60;;;;;;;;;;5137372;27;20259;-70
2021/06/14 06:01:54;;;;;;;5.03;1.70;;;;;;;;;;5131228;27;20237;-70
2021/06/14 06:04:22;;;;;;;1.90;1.70;;;;;;;;;;5131283;27;20204;-66
2021/06/14 06:06:51;;;;;;;3.00;1.73;;;;;;;;;;5129583;27;20560;-71
2021/06/14 06:09:19;;;;;;;1.97;1.87;;;;;;;;;;5132639;27;20201;-70
2021/06/14 06:11:46;;;;;;;4.40;2.40;;;;;;;;;;5131154;27;20266;-68
2021/06/14 06:14:14;;;;;;;4.83;1.63;;;;;;;;;;5130894;27;20201;-69
2021/06/14 06:16:42;;;;;;;3.43;1.63;;;;;;;;;;5131530;27;20635;-70
2021/06/14 06:19:10;;;;;;;3.13;1.80;;;;;;;;;;5132788;27;20711;-69
2021/06/14 06:21:38;;;;;;;1.87;1.77;;;;;;;;;;5132664;27;20223;-69
2021/06/14 06:24:07;;;;;;;3.20;1.93;;;;;;;;;;5133587;27;20207;-70
2021/06/14 06:26:35;;;;;;;1.83;1.70;;;;;;;;;;5134758;27;20207;-68
2021/06/14 06:29:03;;;;;;;5.80;2.00;;;;;;;;;;5131212;27;20708;-67
2021/06/14 06:31:34;;;;;;;2.17;1.97;;;;;;;;;;5129737;27;20236;-69
2021/06/14 06:34:02;;;;;;;4.47;1.90;;;;;;;;;;5125970;27;20199;-69
2021/06/14 06:36:30;;;;;;;2.93;1.80;;;;;;;;;;5130836;27;20575;-68
2021/06/14 06:38:58;;;;;;;1.67;1.57;;;;;;;;;;5128625;27;20203;-68
2021/06/14 06:41:27;;;;;;;3.67;2.70;;;;;;;;;;5134253;27;20674;-70
2021/06/14 06:43:54;;;;;;;3.50;2.00;;;;;;;;;;5133293;27;20207;-69
2021/06/14 06:46:22;;;;;;;2.80;1.80;;;;;;;;;;5126568;27;20203;-69
2021/06/14 06:48:50;;;;;;;1.87;1.63;;;;;;;;;;5128648;27;20203;-66
2021/06/14 06:51:18;;;;;;;2.07;1.93;;;;;;;;;;5130287;27;20216;-66
2021/06/14 06:53:45;;;;;;;1.77;1.60;;;;;;;;;;5133687;27;20245;-64
2021/06/14 06:56:13;;;;;;;3.83;1.70;;;;;;;;;;5133897;27;20227;-66
2021/06/14 06:58:42;;;;;;;3.17;1.73;;;;;;;;;;5132261;27;20196;-67
2021/06/14 07:01:10;;;;;;;4.67;1.87;;;;;;;;;;5131659;27;20198;-69
2021/06/14 07:03:39;;;;;;;7.30;1.90;;;;;;;;;;5131870;27;20238;-69
2021/06/14 07:06:06;;;;;;;3.13;1.90;;;;;;;;;;5136188;27;20206;-69
2021/06/14 07:08:34;;;;;;;1.90;1.70;;;;;;;;;;5136225;27;20228;-69
2021/06/14 07:11:02;;;;;;;6.20;2.80;;;;;;;;;;5136376;27;20208;-69
2021/06/14 07:13:29;;;;;;;2.77;1.80;;;;;;;;;;5134444;27;21191;-69
2021/06/14 07:15:59;;;;;;;1.90;1.80;;;;;;;;;;5133205;28;20290;-66
2021/06/14 07:18:27;;;;;;;2.97;2.00;;;;;;;;;;5128651;28;20200;-68
2021/06/14 07:20:57;;;;;;;2.07;1.80;;;;;;;;;;5131284;28;20204;-67
2021/06/14 07:23:25;;;;;;;2.30;1.70;;;;;;;;;;5131339;28;20202;-67
2021/06/14 07:25:52;;;;;;;4.53;1.90;;;;;;;;;;5130421;28;20192;-68
2021/06/14 07:28:20;;;;;;;2.70;2.00;;;;;;;;;;5132056;28;20202;-66
2021/06/14 07:30:48;;;;;;;1.80;1.70;;;;;;;;;;5130877;28;20368;-66
2021/06/14 07:33:17;;;;;;;4.63;2.50;;;;;;;;;;5130410;28;20760;-66
2021/06/14 07:35:45;;;;;;;8.43;4.67;;;;;;;;;;5130929;28;20222;-66
2021/06/14 07:38:14;;;;;;;9.97;5.77;;;;;;;;;;5125229;28;20627;-65
2021/06/14 07:40:42;;;;;;;4.70;3.47;;;;;;;;;;5122631;28;20231;-66
2021/06/14 07:43:12;;;;;;;5.63;4.63;;;;;;;;;;5132938;27;20224;-66
2021/06/14 07:45:40;;;;;;;10.30;6.33;;;;;;;;;;5138110;28;20201;-65
2021/06/14 07:48:08;;;;;;;13.93;5.93;;;;;;;;;;5131391;28;20209;-65
2021/06/14 07:50:38;;;;;;;5.37;4.33;;;;;;;;;;5129811;28;20205;-64
2021/06/14 07:53:06;;;;;;;5.87;3.03;;;;;;;;;;5131991;28;20641;-65
2021/06/14 07:55:35;;;;;;;7.03;3.07;;;;;;;;;;5130543;28;20213;-65
2021/06/14 07:58:03;;;;;;;5.23;3.77;;;;;;;;;;5132846;28;20249;-67
2021/06/14 08:00:31;;;;;;;5.63;3.10;;;;;;;;;;5129284;28;20247;-67
2021/06/14 08:02:59;;;;;;;9.17;3.80;;;;;;;;;;5132780;28;20609;-68
2021/06/14 08:05:27;;;;;;;3.57;3.00;;;;;;;;;;5125622;27;20603;-67
2021/06/14 08:08:12;;;;;;;5.50;3.03;;;;;;;;;;5133027;27;20291;-67
2021/06/14 08:10:41;;;;;;;8.97;3.53;;;;;;;;;;5132728;27;20208;-68
2021/06/14 08:13:08;;;;;;;3.73;2.70;;;;;;;;;;5141219;27;20219;-68
2021/06/14 08:15:36;;;;;;;8.67;3.10;;;;;;;;;;5136503;27;20250;-67
2021/06/14 08:18:13;;;;;;;4.33;2.93;;;;;;;;;;5136998;27;20639;-68
2021/06/14 08:20:45;;;;;;;5.33;3.03;;;;;;;;;;5135002;27;20223;-68
2021/06/14 08:26:23;;;;;;;4.43;2.70;;;;;;;;;;5058735;27;20501;-66
2021/06/14 08:28:51;;;;;;;3.90;2.30;;;;;;;;;;5140028;27;20617;-66
2021/06/14 08:31:19;;;;;;;5.23;2.30;;;;;;;;;;5140971;27;20730;-67
2021/06/14 08:33:47;;;;;;;4.47;2.40;;;;;;;;;;5136329;27;20253;-67
2021/06/14 08:36:14;;;;;;;6.60;4.43;;;;;;;;;;5133886;27;20228;-67
2021/06/14 08:38:44;;;;;;;3.30;2.60;;;;;;;;;;5135939;27;20713;-66
2021/06/14 08:41:11;;;;;;;2.33;1.90;;;;;;;;;;5132403;27;20194;-67
2021/06/14 08:43:40;;;;;;;8.00;2.40;;;;;;;;;;5136927;27;20211;-67
2021/06/14 08:46:07;;;;;;;4.80;2.10;;;;;;;;;;5131852;27;20212;-67
2021/06/14 08:48:35;;;;;;;4.63;2.57;;;;;;;;;;5140669;27;20257;-67
2021/06/14 08:51:03;;;;;;;4.07;2.90;;;;;;;;;;5140931;27;20643;-67
2021/06/14 08:53:31;;;;;;;2.67;2.43;;;;;;;;;;5141021;27;20310;-67
2021/06/14 08:56:00;;;;;;;2.47;2.00;;;;;;;;;;5140457;27;20595;-67
2021/06/14 08:58:29;;;;;;;4.00;2.57;;;;;;;;;;5140423;27;20272;-66
2021/06/14 09:00:57;;;;;;;4.53;2.20;;;;;;;;;;5140557;27;20311;-66
2021/06/14 09:03:25;;;;;;;4.20;2.33;;;;;;;;;;5140710;27;20580;-67
2021/06/14 09:05:53;;;;;;;4.33;2.77;;;;;;;;;;5140264;27;20270;-67
2021/06/14 09:08:24;;;;;;;7.90;2.57;;;;;;;;;;5140481;27;20602;-67
2021/06/14 09:10:52;;;;;;;2.40;2.20;;;;;;;;;;5140446;27;20206;-66
2021/06/14 09:13:23;;;;;;;3.53;2.83;;;;;;;;;;5133441;27;20546;-67
2021/06/14 09:15:52;;;;;;;7.00;2.63;;;;;;;;;;5132142;27;20198;-67
2021/06/14 09:18:21;;;;;;;4.23;2.40;;;;;;;;;;5136450;27;20198;-67
2021/06/14 09:20:59;;;;;;;4.27;2.40;;;;;;;;;;5140139;27;20256;-67
2021/06/14 09:23:27;;;;;;;3.10;2.17;;;;;;;;;;5139787;27;20566;-67
2021/06/14 09:26:01;;;;;;;4.93;2.20;;;;;;;;;;5139758;27;20228;-67
2021/06/14 09:28:31;;;;;;;3.83;2.30;;;;;;;;;;5134536;27;20200;-67
2021/06/14 09:30:59;;;;;;;4.73;2.27;;;;;;;;;;5139991;27;20234;-67
2021/06/14 09:33:27;;;;;;;3.53;2.13;;;;;;;;;;5139647;27;20226;-67
2021/06/14 09:36:05;;;;;;;5.23;2.27;;;;;;;;;;5139851;27;20221;-67
2021/06/14 09:38:33;;;;;;;3.50;2.23;;;;;;;;;;5139810;27;20194;-67
2021/06/14 09:41:01;;;;;;;13.63;2.63;;;;;;;;;;5139541;27;20208;-65
2021/06/14 09:43:30;;;;;;;5.03;2.33;;;;;;;;;;5139816;27;20207;-65
2021/06/14 09:46:01;;;;;;;2.47;2.13;;;;;;;;;;5139693;27;20200;-66
2021/06/14 09:48:29;;;;;;;3.43;2.50;;;;;;;;;;5132238;27;20196;-71
2021/06/14 09:50:59;;;;;;;7.23;5.13;;;;;;;;;;5129899;27;20198;-65
2021/06/14 09:53:34;;;;;;;7.90;2.97;;;;;;;;;;5132500;27;20269;-66
2021/06/14 09:56:13;;;;;;;6.13;3.07;;;;;;;;;;5131652;27;20724;-66
2021/06/14 09:58:45;;;;;;;5.80;3.30;;;;;;;;;;5135912;27;20600;-68
2021/06/14 10:01:14;;;;;;;3.00;2.47;;;;;;;;;;5139128;27;20251;-67
2021/06/14 10:03:43;;;;;;;3.63;2.43;;;;;;;;;;5139474;27;20206;-68
2021/06/14 10:06:12;;;;;;;3.07;2.17;;;;;;;;;;5139474;27;20217;-68
2021/06/14 10:08:43;;;;;;;3.53;2.37;;;;;;;;;;5139143;27;20204;-68
2021/06/14 10:11:12;;;;;;;4.50;2.57;;;;;;;;;;5138824;27;20285;-67
2021/06/14 10:13:40;;;;;;;6.40;2.87;;;;;;;;;;5138744;27;20199;-68
2021/06/14 10:16:09;;;;;;;5.37;2.73;;;;;;;;;;5138977;27;20255;-66
2021/06/14 10:18:40;;;;;;;5.83;2.40;;;;;;;;;;5139195;27;20206;-66
2021/06/14 10:21:09;;;;;;;10.27;4.57;;;;;;;;;;5139000;27;20207;-66
2021/06/14 10:23:36;;;;;;;3.47;2.60;;;;;;;;;;5139046;27;20200;-67
2021/06/14 10:26:05;;;;;;;4.27;2.57;;;;;;;;;;5138444;27;20236;-67
2021/06/14 10:28:33;;;;;;;2.67;2.47;;;;;;;;;;5138684;27;20264;-68
2021/06/14 10:31:00;;;;;;;9.50;3.10;;;;;;;;;;5138956;27;20601;-66
2021/06/14 10:33:29;;;;;;;3.83;2.67;;;;;;;;;;5138555;27;20204;-67
2021/06/14 10:35:58;;;;;;;7.03;2.60;;;;;;;;;;5138454;27;20234;-66
2021/06/14 10:38:45;;;;;;;5.53;2.20;;;;;;;;;;5138469;27;20222;-67
2021/06/14 10:41:13;;;;;;;3.15;2.47;;;;;;;;;;5138537;27;20213;-67
2021/06/14 10:43:41;;;;;;;2.70;2.37;;;;;;;;;;5138610;27;20209;-67
2021/06/14 10:46:10;;;;;;;2.50;2.30;;;;;;;;;;5138828;27;20589;-67
2021/06/14 10:48:39;;;;;;;7.90;2.90;;;;;;;;;;5135442;27;20227;-67
2021/06/14 10:51:13;;;;;;;7.53;2.70;;;;;;;;;;5128827;27;20196;-67
2021/06/14 10:53:41;;;;;;;3.17;2.83;;;;;;;;;;5131821;27;20207;-67
2021/06/14 10:56:09;;;;;;;4.88;2.33;;;;;;;;;;5138357;27;20656;-67
2021/06/14 10:58:37;;;;;;;2.60;2.20;;;;;;;;;;5138017;27;20294;-67
2021/06/14 11:01:06;;;;;;;4.15;2.35;;;;;;;;;;5131323;27;20198;-67
2021/06/14 11:03:38;;;;;;;4.80;2.30;;;;;;;;;;5134814;27;20573;-67
2021/06/14 11:06:16;;;;;;;3.00;2.70;;;;;;;;;;5131928;27;20201;-67
2021/06/14 11:08:45;;;;;;;5.63;2.45;;;;;;;;;;5134128;27;20201;-66
2021/06/14 11:11:13;;;;;;;7.60;3.20;;;;;;;;;;5126743;27;20203;-67
2021/06/14 11:13:48;;;;;;;6.47;2.43;;;;;;;;;;5125133;27;20262;-67
2021/06/14 11:16:16;;;;;;;3.80;2.07;;;;;;;;;;5129832;28;20740;-67
2021/06/14 11:18:45;;;;;;;4.07;2.00;;;;;;;;;;5125368;28;20224;-67
2021/06/14 11:21:13;;;;;;;2.73;2.20;;;;;;;;;;5135216;28;20677;-67
2021/06/14 11:23:43;;;;;;;5.40;2.30;;;;;;;;;;5138100;28;20205;-67
2021/06/14 11:26:12;;;;;;;6.57;2.30;;;;;;;;;;5125071;28;20289;-69
2021/06/14 11:28:40;;;;;;;4.70;2.30;;;;;;;;;;5137880;28;20599;-67
2021/06/14 11:31:16;;;;;;;2.93;2.10;;;;;;;;;;5123249;28;20228;-68
2021/06/14 11:33:44;;;;;;;2.40;1.93;;;;;;;;;;5137870;28;20211;-67
2021/06/14 11:36:13;;;;;;;2.47;2.37;;;;;;;;;;5137993;28;20202;-67
2021/06/14 11:38:42;;;;;;;3.33;2.10;;;;;;;;;;5138026;28;20223;-68
2021/06/14 11:41:10;;;;;;;4.93;2.23;;;;;;;;;;5139406;27;20288;-67
2021/06/14 11:43:38;;;;;;;1.80;1.70;;;;;;;;;;5142115;27;20210;-68
2021/06/14 11:46:17;;;;;;;3.43;2.23;;;;;;;;;;5142342;27;20214;-69
2021/06/14 11:48:47;;;;;;;2.40;2.20;;;;;;;;;;5142222;27;20270;-69
2021/06/14 11:51:18;;;;;;;5.40;2.57;;;;;;;;;;5141949;27;20224;-70
2021/06/14 11:53:53;;;;;;;2.67;2.20;;;;;;;;;;5140271;27;20210;-71
2021/06/14 11:56:21;;;;;;;2.20;1.97;;;;;;;;;;5141904;27;20715;-71
2021/06/14 11:58:49;;;;;;;6.77;2.13;;;;;;;;;;5141213;27;20220;-70
2021/06/14 12:01:18;;;;;;;2.37;2.20;;;;;;;;;;5141708;27;20229;-70
2021/06/14 12:03:45;;;;;;;2.97;2.30;;;;;;;;;;5141548;27;20217;-75
2021/06/14 12:06:13;;;;;;;2.77;2.33;;;;;;;;;;5141834;27;20289;-75
2021/06/14 12:08:41;;;;;;;2.80;2.10;;;;;;;;;;5141464;27;20225;-77
2021/06/14 12:11:10;;;;;;;4.47;2.47;;;;;;;;;;5141280;27;20246;-76
2021/06/14 12:13:38;;;;;;;3.83;1.90;;;;;;;;;;5141050;27;20212;-74
2021/06/14 12:16:06;;;;;;;4.20;1.70;;;;;;;;;;5141422;27;20202;-74
2021/06/14 12:18:34;;;;;;;4.07;1.87;;;;;;;;;;5141528;27;20613;-76
2021/06/14 12:21:03;;;;;;;1.83;1.60;;;;;;;;;;5141495;27;20556;-74
2021/06/14 12:23:31;;;;;;;1.80;1.70;;;;;;;;;;5141438;27;20214;-74
2021/06/14 12:25:59;;;;;;;2.57;2.37;;;;;;;;;;5141492;27;20243;-75
2021/06/14 12:28:28;;;;;;;5.93;2.17;;;;;;;;;;5141366;27;20201;-74
2021/06/14 12:31:00;;;;;;;3.53;2.27;;;;;;;;;;5141067;27;20239;-73
2021/06/14 12:33:30;;;;;;;2.37;2.23;;;;;;;;;;5141050;27;20233;-74
2021/06/14 12:35:58;;;;;;;3.37;2.27;;;;;;;;;;5141049;27;20257;-74
2021/06/14 12:38:28;;;;;;;2.20;2.00;;;;;;;;;;5127758;27;20646;-73
2021/06/14 12:40:57;;;;;;;4.43;2.50;;;;;;;;;;5137415;27;20248;-74
2021/06/14 12:43:25;;;;;;;5.50;2.47;;;;;;;;;;5133964;27;20204;-74
2021/06/14 12:45:55;;;;;;;2.63;2.42;;;;;;;;;;5135082;27;20219;-74
2021/06/14 12:48:23;;;;;;;4.97;2.67;;;;;;;;;;5137578;27;20288;-74
2021/06/14 12:50:52;;;;;;;2.65;2.45;;;;;;;;;;5140024;27;20293;-74
2021/06/14 12:53:21;;;;;;;3.47;3.17;;;;;;;;;;5140002;27;20659;-74
2021/06/14 12:55:49;;;;;;;2.60;2.40;;;;;;;;;;5140286;27;20266;-74
2021/06/14 12:58:18;;;;;;;3.78;2.60;;;;;;;;;;5140193;27;20230;-74
2021/06/14 13:00:48;;;;;;;2.90;2.35;;;;;;;;;;5140324;27;20211;-75
2021/06/14 13:03:17;;;;;;;3.72;3.15;;;;;;;;;;5140334;27;20268;-74
2021/06/14 13:05:47;;;;;;;2.65;2.40;;;;;;;;;;5140709;27;20650;-75
2021/06/14 13:08:16;;;;;;;4.10;2.67;;;;;;;;;;5140095;27;20234;-72
2021/06/14 13:10:44;;;;;;;3.10;2.00;;;;;;;;;;5128502;27;20207;-72
2021/06/14 13:13:14;;;;;;;2.58;2.38;;;;;;;;;;5134104;27;20673;-73
2021/06/14 13:15:42;;;;;;;3.55;2.15;;;;;;;;;;5134732;27;20213;-69
2021/06/14 13:18:10;;;;;;;5.43;2.53;;;;;;;;;;5139865;27;20219;-71
2021/06/14 13:20:39;;;;;;;3.33;2.13;;;;;;;;;;5140828;27;20236;-70
2021/06/14 13:23:08;;;;;;;3.13;2.03;;;;;;;;;;5140514;27;20273;-71
2021/06/14 13:25:37;;;;;;;2.20;2.00;;;;;;;;;;5140174;27;20204;-71
2021/06/14 13:28:05;;;;;;;7.22;2.30;;;;;;;;;;5140268;27;20214;-71
2021/06/14 13:30:38;;;;;;;4.80;2.22;;;;;;;;;;5140214;27;20255;-71
2021/06/14 13:33:07;;;;;;;3.38;2.22;;;;;;;;;;5131203;27;20225;-72
2021/06/14 13:35:35;;;;;;;2.83;2.10;;;;;;;;;;5138682;27;20208;-72
2021/06/14 13:38:04;;;;;;;3.15;1.98;;;;;;;;;;5140297;27;20207;-72
2021/06/14 13:40:33;;;;;;;4.15;2.20;;;;;;;;;;5139910;27;20208;-72
2021/06/14 13:43:02;;;;;;;2.40;2.03;;;;;;;;;;5139977;27;20219;-72
2021/06/14 13:45:34;;;;;;;3.15;1.98;;;;;;;;;;5127264;27;20236;-72
2021/06/14 13:48:03;;;;;;;3.05;2.10;;;;;;;;;;5140016;27;20229;-72
2021/06/14 13:50:33;;;;;;;2.95;2.75;;;;;;;;;;5140220;27;20560;-72
2021/06/14 13:53:13;;;;;;;2.22;2.03;;;;;;;;;;5140003;27;20219;-72
2021/06/14 13:55:48;;;;;;;4.40;2.25;;;;;;;;;;5139966;27;20199;-72
2021/06/14 13:58:16;;;;;;;4.85;2.38;;;;;;;;;;5139803;27;20688;-71
2021/06/14 14:00:43;;;;;;;3.33;2.45;;;;;;;;;;5139791;27;20204;-71
2021/06/14 14:03:12;;;;;;;3.10;2.53;;;;;;;;;;5138873;27;20228;-71
2021/06/14 14:05:39;;;;;;;2.50;2.30;;;;;;;;;;5139741;27;20558;-72
2021/06/14 14:08:08;;;;;;;4.55;2.05;;;;;;;;;;5139927;27;20208;-71
2021/06/14 14:10:38;;;;;;;4.82;2.30;;;;;;;;;;5139195;27;20286;-71
2021/06/14 14:13:06;;;;;;;2.38;2.13;;;;;;;;;;5129370;27;20232;-72
2021/06/14 14:15:34;;;;;;;2.60;2.10;;;;;;;;;;5139497;27;20253;-71
2021/06/14 14:18:02;;;;;;;4.13;2.10;;;;;;;;;;5139596;27;20311;-72
2021/06/14 14:20:30;;;;;;;3.85;2.42;;;;;;;;;;5139581;27;20276;-72
2021/06/14 14:22:58;;;;;;;8.05;2.20;;;;;;;;;;5139335;27;20228;-72
2021/06/14 14:25:26;;;;;;;3.50;2.38;;;;;;;;;;5139246;27;20225;-72
2021/06/14 14:27:55;;;;;;;3.85;2.00;;;;;;;;;;5139294;27;20204;-72
2021/06/14 14:30:27;;;;;;;4.75;2.40;;;;;;;;;;5139645;27;20199;-71
2021/06/14 14:32:55;;;;;;;3.58;3.28;;;;;;;;;;5139808;27;20747;-69
2021/06/14 14:35:27;;;;;;;2.10;2.00;;;;;;;;;;5139227;27;20610;-68
2021/06/14 14:37:57;;;;;;;3.63;2.30;;;;;;;;;;5139454;27;20212;-68
2021/06/14 14:40:27;;;;;;;2.63;2.42;;;;;;;;;;5138754;27;20253;-68
2021/06/14 14:42:56;;;;;;;2.53;1.80;;;;;;;;;;5138617;27;20269;-70
2021/06/14 14:45:25;;;;;;;2.22;2.03;;;;;;;;;;5139000;27;20547;-69
2021/06/14 14:47:54;;;;;;;1.70;1.60;;;;;;;;;;5134798;27;20719;-69
2021/06/14 14:50:23;;;;;;;2.35;2.15;;;;;;;;;;5139178;27;20203;-68
2021/06/14 14:52:51;;;;;;;4.15;2.20;;;;;;;;;;5136875;27;20220;-68
2021/06/14 14:55:22;;;;;;;5.25;1.98;;;;;;;;;;5137085;27;20239;-68
2021/06/14 14:57:50;;;;;;;2.67;2.00;;;;;;;;;;5136624;27;20252;-68